sensor_id;sensor_type;location;lat;lon;timestamp;temperature;humidity
67165;SHT31;54093;50.014;19.984;2022-09-03T00:04:36;13.05;69.73
67165;SHT31;54093;50.014;19.984;2022-09-03T00:14:05;12.89;70.33
67165;SHT31;54093;50.014;19.984;2022-09-03T00:23:29;12.62;71.45
67165;SHT31;54093;50.014;19.984;2022-09-03T00:33:18;12.54;70.79
67165;SHT31;54093;50.014;19.984;2022-09-03T00:43:06;12.31;70.71
67165;SHT31;54093;50.014;19.984;2022-09-03T00:52:45;12.20;71.59
67165;SHT31;54093;50.014;19.984;2022-09-03T01:02:30;12.14;72.23
67165;SHT31;54093;50.014;19.984;2022-09-03T01:12:19;12.06;72.22
67165;SHT31;54093;50.014;19.984;2022-09-03T01:41:22;11.76;73.17
67165;SHT31;54093;50.014;19.984;2022-09-03T01:51:24;11.73;72.65
67165;SHT31;54093;50.014;19.984;2022-09-03T02:00:54;11.65;73.07
67165;SHT31;54093;50.014;19.984;2022-09-03T02:10:20;11.68;74.09
67165;SHT31;54093;50.014;19.984;2022-09-03T02:19:41;11.59;74.26
67165;SHT31;54093;50.014;19.984;2022-09-03T02:29:03;11.32;73.86
67165;SHT31;54093;50.014;19.984;2022-09-03T02:38:24;11.21;74.13
67165;SHT31;54093;50.014;19.984;2022-09-03T02:47:49;11.06;73.98
67165;SHT31;54093;50.014;19.984;2022-09-03T02:57:14;10.93;75.30
67165;SHT31;54093;50.014;19.984;2022-09-03T03:06:35;10.81;75.31
67165;SHT31;54093;50.014;19.984;2022-09-03T03:16:03;10.62;74.65
67165;SHT31;54093;50.014;19.984;2022-09-03T03:25:25;10.59;75.43
67165;SHT31;54093;50.014;19.984;2022-09-03T03:34:46;10.53;74.73
67165;SHT31;54093;50.014;19.984;2022-09-03T03:44:07;10.36;75.63
67165;SHT31;54093;50.014;19.984;2022-09-03T03:53:28;10.25;75.40
67165;SHT31;54093;50.014;19.984;2022-09-03T04:02:49;10.18;76.05
67165;SHT31;54093;50.014;19.984;2022-09-03T04:12:10;10.15;76.61
67165;SHT31;54093;50.014;19.984;2022-09-03T04:21:30;10.16;76.66
67165;SHT31;54093;50.014;19.984;2022-09-03T04:30:52;10.36;76.13
67165;SHT31;54093;50.014;19.984;2022-09-03T04:40:13;10.60;76.28
67165;SHT31;54093;50.014;19.984;2022-09-03T04:49:34;10.90;75.13
67165;SHT31;54093;50.014;19.984;2022-09-03T04:58:57;11.11;75.40
67165;SHT31;54093;50.014;19.984;2022-09-03T05:08:17;11.24;75.24
67165;SHT31;54093;50.014;19.984;2022-09-03T05:17:38;11.32;74.89
67165;SHT31;54093;50.014;19.984;2022-09-03T05:26:59;11.42;74.20
67165;SHT31;54093;50.014;19.984;2022-09-03T05:36:22;11.45;74.54
67165;SHT31;54093;50.014;19.984;2022-09-03T05:45:43;11.61;75.18
67165;SHT31;54093;50.014;19.984;2022-09-03T05:55:04;11.76;75.17
67165;SHT31;54093;50.014;19.984;2022-09-03T06:04:25;11.90;75.38
67165;SHT31;54093;50.014;19.984;2022-09-03T06:13:46;12.30;75.19
67165;SHT31;54093;50.014;19.984;2022-09-03T06:23:07;12.88;76.33
67165;SHT31;54093;50.014;19.984;2022-09-03T06:32:27;13.33;73.27
67165;SHT31;54093;50.014;19.984;2022-09-03T06:41:49;13.54;74.15
67165;SHT31;54093;50.014;19.984;2022-09-03T06:51:20;13.74;74.47
67165;SHT31;54093;50.014;19.984;2022-09-03T07:00:41;14.16;74.02
67165;SHT31;54093;50.014;19.984;2022-09-03T07:10:02;14.40;74.01
67165;SHT31;54093;50.014;19.984;2022-09-03T07:19:23;14.73;72.63
67165;SHT31;54093;50.014;19.984;2022-09-03T07:28:45;15.14;72.40
67165;SHT31;54093;50.014;19.984;2022-09-03T07:38:06;15.65;70.91
67165;SHT31;54093;50.014;19.984;2022-09-03T07:47:27;15.93;69.61
67165;SHT31;54093;50.014;19.984;2022-09-03T07:56:49;15.91;69.09
67165;SHT31;54093;50.014;19.984;2022-09-03T08:06:10;15.93;69.87
67165;SHT31;54093;50.014;19.984;2022-09-03T08:15:32;15.96;70.56
67165;SHT31;54093;50.014;19.984;2022-09-03T08:24:53;16.07;70.72
67165;SHT31;54093;50.014;19.984;2022-09-03T08:34:15;16.41;69.29
67165;SHT31;54093;50.014;19.984;2022-09-03T08:53:39;16.59;68.58
67165;SHT31;54093;50.014;19.984;2022-09-03T09:31:56;16.36;67.52
67165;SHT31;54093;50.014;19.984;2022-09-03T09:41:19;16.25;67.54
67165;SHT31;54093;50.014;19.984;2022-09-03T09:50:40;16.29;67.92
67165;SHT31;54093;50.014;19.984;2022-09-03T10:00:21;16.47;68.12
67165;SHT31;54093;50.014;19.984;2022-09-03T10:09:42;16.55;67.66
67165;SHT31;54093;50.014;19.984;2022-09-03T10:19:16;16.92;68.95
67165;SHT31;54093;50.014;19.984;2022-09-03T10:28:38;17.86;66.42
67165;SHT31;54093;50.014;19.984;2022-09-03T10:57:17;18.37;62.34
67165;SHT31;54093;50.014;19.984;2022-09-03T11:16:12;18.48;62.72
67165;SHT31;54093;50.014;19.984;2022-09-03T11:25:41;18.98;62.80
67165;SHT31;54093;50.014;19.984;2022-09-03T11:35:13;19.49;59.56
67165;SHT31;54093;50.014;19.984;2022-09-03T11:44:39;19.81;58.65
67165;SHT31;54093;50.014;19.984;2022-09-03T11:54:04;19.46;58.33
67165;SHT31;54093;50.014;19.984;2022-09-03T12:03:52;19.36;59.04
67165;SHT31;54093;50.014;19.984;2022-09-03T12:22:41;19.26;60.72
67165;SHT31;54093;50.014;19.984;2022-09-03T12:32:07;19.04;60.73
67165;SHT31;54093;50.014;19.984;2022-09-03T12:41:29;19.71;61.91
67165;SHT31;54093;50.014;19.984;2022-09-03T12:51:01;20.52;58.86
67165;SHT31;54093;50.014;19.984;2022-09-03T13:00:22;21.20;58.72
67165;SHT31;54093;50.014;19.984;2022-09-03T13:09:45;21.01;55.37
67165;SHT31;54093;50.014;19.984;2022-09-03T13:29:13;20.25;58.18
67165;SHT31;54093;50.014;19.984;2022-09-03T13:38:42;20.11;56.15
67165;SHT31;54093;50.014;19.984;2022-09-03T13:48:19;20.05;58.84
67165;SHT31;54093;50.014;19.984;2022-09-03T13:58:07;20.00;59.18
67165;SHT31;54093;50.014;19.984;2022-09-03T14:07:45;19.64;59.08
67165;SHT31;54093;50.014;19.984;2022-09-03T14:17:40;19.37;59.06
67165;SHT31;54093;50.014;19.984;2022-09-03T14:27:02;19.12;61.34
67165;SHT31;54093;50.014;19.984;2022-09-03T14:37:05;19.16;60.84
67165;SHT31;54093;50.014;19.984;2022-09-03T15:05:37;18.72;60.90
67165;SHT31;54093;50.014;19.984;2022-09-03T15:15:09;18.54;61.68
67165;SHT31;54093;50.014;19.984;2022-09-03T15:44:18;18.48;62.93
67165;SHT31;54093;50.014;19.984;2022-09-03T15:53:50;18.32;62.22
67165;SHT31;54093;50.014;19.984;2022-09-03T16:03:13;18.19;62.82
67165;SHT31;54093;50.014;19.984;2022-09-03T16:12:51;18.14;63.62
67165;SHT31;54093;50.014;19.984;2022-09-03T16:22:25;18.13;63.95
67165;SHT31;54093;50.014;19.984;2022-09-03T16:41:46;17.95;65.11
67165;SHT31;54093;50.014;19.984;2022-09-03T17:11:27;17.62;66.25
67165;SHT31;54093;50.014;19.984;2022-09-03T17:21:13;17.58;66.52
67165;SHT31;54093;50.014;19.984;2022-09-03T17:50:06;17.38;67.10
67165;SHT31;54093;50.014;19.984;2022-09-03T17:59:34;17.30;67.72
67165;SHT31;54093;50.014;19.984;2022-09-03T18:09:05;17.13;67.79
67165;SHT31;54093;50.014;19.984;2022-09-03T18:18:28;17.02;68.55
67165;SHT31;54093;50.014;19.984;2022-09-03T18:27:53;16.93;68.52
67165;SHT31;54093;50.014;19.984;2022-09-03T18:37:35;16.80;68.78
67165;SHT31;54093;50.014;19.984;2022-09-03T18:57:30;16.47;69.90
67165;SHT31;54093;50.014;19.984;2022-09-03T19:47:42;15.79;71.69
67165;SHT31;54093;50.014;19.984;2022-09-03T19:57:23;15.67;72.10
67165;SHT31;54093;50.014;19.984;2022-09-03T20:07:07;15.53;72.31
67165;SHT31;54093;50.014;19.984;2022-09-03T20:36:32;15.19;72.55
67165;SHT31;54093;50.014;19.984;2022-09-03T20:46:09;15.08;73.58
67165;SHT31;54093;50.014;19.984;2022-09-03T20:55:41;15.01;73.34
67165;SHT31;54093;50.014;19.984;2022-09-03T21:15:21;14.80;74.42
67165;SHT31;54093;50.014;19.984;2022-09-03T21:25:03;14.66;74.47
67165;SHT31;54093;50.014;19.984;2022-09-03T21:44:36;14.22;74.96
67165;SHT31;54093;50.014;19.984;2022-09-03T21:54:11;14.09;75.33
67165;SHT31;54093;50.014;19.984;2022-09-03T22:03:33;13.92;75.44
67165;SHT31;54093;50.014;19.984;2022-09-03T22:22:48;13.70;75.82
67165;SHT31;54093;50.014;19.984;2022-09-03T23:01:23;13.48;77.35
67165;SHT31;54093;50.014;19.984;2022-09-03T23:11:05;13.51;77.53
67165;SHT31;54093;50.014;19.984;2022-09-03T23:20:28;13.39;77.87
67165;SHT31;54093;50.014;19.984;2022-09-03T23:29:54;13.30;78.10
67165;SHT31;54093;50.014;19.984;2022-09-03T23:49:12;13.13;78.18
67165;SHT31;54093;50.014;19.984;2022-09-03T23:58:54;13.12;78.36
